Terminal Aerodrome Forecast
Issued by NWS

Home | Current Version | Previous Version | Text Only | Print | Product List | Glossary On
Versions: 1 2 3 4 5 6 7 8 9 10 11 12 13 14 15 16 17 18 19 20 21 22 23 24 25 26 27 28 29 30 31 32 33 34 35 36 37 38
311
FTUS44 KHGX 220122 AAA
TAFSGR
TAF AMD
KSGR 220122Z 2201/2224 15012KT P6SM VCSH BKN018 BKN023 OVC040
      TEMPO 2201/2203 3SM SHRA BKN012 OVC025
     FM220300 16009KT P6SM VCTS BKN015CB OVC030
      TEMPO 2203/2207 VRB08G20KT 3SM TSRA BKN015CB OVC025
     FM220700 27009KT P6SM VCSH BKN015 BKN035
     FM221100 30009KT P6SM BKN015
     FM221500 32010G17KT P6SM FEW020 BKN250=

USA.gov is the U.S. government's official web portal to all federal, state and local government web resources and services.